Time;durP1;ratioP1;P1;durP2;ratioP2;P2;SDS_P1;SDS_P2;PMS_P1;PMS_P2;Temp;Humidity;BMP_temperature;BMP_pressure;BME280_temperature;BME280_humidity;BME280_pressure;Samples;Min_cycle;Max_cycle;Signal;HPM_P1;HPM_P2
2021/10/30 00:00:16;;;;;;;3.03;1.35;;;;;;;21.01;50.57;100489.53;5073576;28;20040;-61
2021/10/30 00:02:42;;;;;;;3.10;1.42;;;;;;;21.01;50.71;100483.38;5072785;28;20027;-62
2021/10/30 00:05:11;;;;;;;2.80;1.60;;;;;;;21.00;50.66;100489.69;5073235;28;20032;-61
2021/10/30 00:07:42;;;;;;;3.58;1.60;;;;;;;20.97;50.71;100493.44;5073359;28;20036;-62
2021/10/30 00:10:12;;;;;;;4.18;1.50;;;;;;;20.97;50.73;100489.97;5073041;28;20028;-62
2021/10/30 00:12:38;;;;;;;2.80;1.38;;;;;;;20.93;50.76;100489.44;5073385;28;20036;-62
2021/10/30 00:15:04;;;;;;;3.25;1.58;;;;;;;20.95;50.56;100491.94;5071876;28;20078;-61
2021/10/30 00:17:29;;;;;;;2.95;1.40;;;;;;;20.94;50.58;100493.75;5073362;28;20032;-63
2021/10/30 00:19:55;;;;;;;2.87;1.50;;;;;;;20.94;50.69;100488.44;5073319;28;20020;-61
2021/10/30 00:22:20;;;;;;;3.50;1.60;;;;;;;20.94;50.70;100483.16;5072224;28;20269;-62
2021/10/30 00:24:46;;;;;;;2.60;1.23;;;;;;;20.95;50.60;100481.31;5073311;28;20433;-62
2021/10/30 00:27:12;;;;;;;3.28;1.52;;;;;;;20.95;50.52;100465.44;5073065;28;20037;-62
2021/10/30 00:29:38;;;;;;;2.72;1.42;;;;;;;20.96;50.48;100453.88;5072481;28;20029;-62
2021/10/30 00:32:04;;;;;;;2.55;1.40;;;;;;;20.96;50.55;100460.00;5072732;28;20368;-63
2021/10/30 00:34:30;;;;;;;2.95;1.52;;;;;;;20.94;50.63;100461.16;5073106;28;20115;-62
2021/10/30 00:36:55;;;;;;;2.80;1.65;;;;;;;20.91;50.58;100450.84;5072242;28;20428;-63
2021/10/30 00:39:20;;;;;;;3.07;1.63;;;;;;;20.89;50.72;100456.31;5072804;28;20033;-62
2021/10/30 00:41:50;;;;;;;5.57;1.67;;;;;;;20.89;50.64;100447.53;5073125;28;20307;-61
2021/10/30 00:44:16;;;;;;;3.15;1.52;;;;;;;20.89;50.64;100437.75;5071715;28;20100;-62
2021/10/30 00:46:44;;;;;;;3.03;1.50;;;;;;;20.89;50.42;100432.47;5072839;28;20037;-62
2021/10/30 00:49:11;;;;;;;3.05;1.42;;;;;;;20.88;50.40;100438.72;5072521;28;20536;-61
2021/10/30 00:51:38;;;;;;;3.40;1.70;;;;;;;20.88;50.64;100440.56;5071981;28;20036;-62
2021/10/30 00:54:05;;;;;;;3.42;1.50;;;;;;;20.87;50.61;100442.38;5072193;28;20041;-62
2021/10/30 00:56:31;;;;;;;2.85;1.52;;;;;;;20.87;50.52;100438.88;5072576;28;20040;-62
2021/10/30 00:59:04;;;;;;;4.03;1.60;;;;;;;20.88;50.61;100443.22;5070706;28;20036;-62
2021/10/30 01:01:29;;;;;;;3.70;1.60;;;;;;;20.86;50.34;100435.41;5072295;28;20032;-62
2021/10/30 01:03:55;;;;;;;2.95;1.50;;;;;;;20.84;50.54;100434.75;5071448;28;20044;-62
2021/10/30 01:06:21;;;;;;;2.70;1.33;;;;;;;20.83;50.93;100428.59;5072244;28;20020;-62
2021/10/30 01:08:47;;;;;;;3.63;1.50;;;;;;;20.82;50.34;100429.59;5072640;28;20028;-62
2021/10/30 01:11:15;;;;;;;3.22;1.60;;;;;;;20.81;50.43;100427.09;5071464;28;20029;-61
2021/10/30 01:13:42;;;;;;;4.47;1.85;;;;;;;20.81;50.47;100429.75;5072318;28;20024;-62
2021/10/30 01:16:09;;;;;;;3.30;1.50;;;;;;;20.79;50.03;100431.69;5071895;28;20028;-62
2021/10/30 01:18:39;;;;;;;4.07;1.50;;;;;;;20.77;50.48;100421.25;5071268;28;20539;-62
2021/10/30 01:21:04;;;;;;;2.20;1.25;;;;;;;20.77;50.32;100426.56;5071955;28;20036;-62
2021/10/30 01:23:30;;;;;;;3.13;1.42;;;;;;;20.75;50.45;100428.53;5072522;28;20166;-61
2021/10/30 01:26:01;;;;;;;2.75;1.30;;;;;;;20.75;50.40;100428.53;5070140;28;20122;-62
2021/10/30 01:28:29;;;;;;;3.03;1.50;;;;;;;20.75;50.34;100420.59;5071963;28;20017;-62
2021/10/30 01:30:55;;;;;;;2.75;1.50;;;;;;;20.74;50.43;100420.72;5072202;28;20033;-62
2021/10/30 01:33:23;;;;;;;2.97;1.50;;;;;;;20.73;50.42;100421.72;5071041;28;20028;-62
2021/10/30 01:35:48;;;;;;;2.95;1.45;;;;;;;20.73;50.30;100416.41;5071971;28;20510;-62
2021/10/30 01:38:14;;;;;;;2.33;1.25;;;;;;;20.72;50.40;100418.22;5071815;28;20024;-61
2021/10/30 01:40:51;;;;;;;3.03;1.40;;;;;;;20.73;50.27;100408.47;5071367;28;20025;-62
2021/10/30 01:43:17;;;;;;;2.58;1.40;;;;;;;20.71;50.26;100395.41;5071925;28;20467;-62
2021/10/30 01:45:44;;;;;;;3.00;1.50;;;;;;;20.72;50.41;100401.53;5071983;28;20028;-61
2021/10/30 01:48:10;;;;;;;3.30;1.50;;;;;;;20.71;50.48;100395.41;5071046;28;20119;-62
2021/10/30 01:50:38;;;;;;;2.88;1.38;;;;;;;20.70;50.40;100399.03;5072110;28;20044;-62
2021/10/30 01:53:03;;;;;;;2.83;1.20;;;;;;;20.66;50.44;100384.41;5071579;28;20049;-62
2021/10/30 01:55:32;;;;;;;3.33;1.40;;;;;;;20.65;50.38;100390.72;5071177;28;20032;-62
2021/10/30 01:57:58;;;;;;;2.65;1.15;;;;;;;20.62;50.49;100381.22;5071524;28;20020;-62
2021/10/30 02:00:23;;;;;;;2.53;1.27;;;;;;;20.61;50.57;100376.91;5071248;28;20017;-62
2021/10/30 02:02:48;;;;;;;2.83;1.38;;;;;;;20.63;50.38;100377.59;5072133;28;20036;-61
2021/10/30 02:05:14;;;;;;;2.70;1.40;;;;;;;20.63;50.41;100364.38;5071675;28;20396;-62
2021/10/30 02:07:39;;;;;;;2.67;1.40;;;;;;;20.63;50.42;100363.50;5070680;28;20033;-61
2021/10/30 02:10:07;;;;;;;3.13;1.50;;;;;;;20.64;50.58;100368.69;5071570;28;20033;-62
2021/10/30 02:12:34;;;;;;;3.75;1.42;;;;;;;20.62;50.08;100356.56;5071792;28;20020;-62
2021/10/30 02:15:01;;;;;;;5.18;1.48;;;;;;;20.61;50.37;100350.44;5070740;28;20043;-62
2021/10/30 02:17:27;;;;;;;2.97;1.38;;;;;;;20.62;50.47;100352.09;5071584;28;20386;-62
2021/10/30 02:19:52;;;;;;;3.40;1.80;;;;;;;20.61;50.41;100339.00;5071799;28;20032;-62
2021/10/30 02:22:17;;;;;;;3.40;1.52;;;;;;;20.60;50.37;100338.19;5070639;28;20025;-62
2021/10/30 02:24:43;;;;;;;2.70;1.23;;;;;;;20.61;50.40;100339.00;5071787;28;20415;-62
2021/10/30 02:27:11;;;;;;;3.05;1.52;;;;;;;20.60;50.36;100324.09;5071494;28;20025;-62
2021/10/30 02:29:36;;;;;;;3.55;1.67;;;;;;;20.59;50.31;100320.63;5070976;28;20075;-62
2021/10/30 02:32:02;;;;;;;2.65;1.25;;;;;;;20.58;50.50;100308.38;5071308;28;20036;-63
2021/10/30 02:34:28;;;;;;;2.95;1.40;;;;;;;20.59;50.46;100310.03;5071763;28;20033;-62
2021/10/30 02:36:54;;;;;;;3.17;1.50;;;;;;;20.59;50.41;100298.63;5070718;28;20493;-61
2021/10/30 02:39:19;;;;;;;3.15;1.50;;;;;;;20.60;50.37;100303.78;5074931;28;20029;-62
2021/10/30 02:41:45;;;;;;;3.20;1.40;;;;;;;20.61;50.61;100305.41;5075216;28;20024;-63
2021/10/30 02:44:13;;;;;;;3.05;1.50;;;;;;;20.61;50.43;100302.78;5074110;28;20472;-63
2021/10/30 02:46:38;;;;;;;2.67;1.50;;;;;;;20.59;50.49;100307.41;5075119;28;20016;-62
2021/10/30 02:49:04;;;;;;;2.95;1.85;;;;;;;20.58;50.63;100296.97;5074895;28;20121;-62
2021/10/30 02:51:32;;;;;;;2.97;1.40;;;;;;;20.59;50.79;100288.88;5074477;28;20024;-63
2021/10/30 02:53:57;;;;;;;3.33;1.40;;;;;;;20.60;50.58;100285.25;5074493;28;20052;-62
2021/10/30 02:56:22;;;;;;;3.03;1.40;;;;;;;20.60;50.58;100273.81;5074908;28;20066;-62
2021/10/30 02:58:50;;;;;;;2.78;1.30;;;;;;;20.62;50.40;100275.31;5074455;28;20318;-63
2021/10/30 03:01:16;;;;;;;3.60;1.58;;;;;;;20.64;50.35;100270.72;5074707;28;20570;-61
2021/10/30 03:03:41;;;;;;;4.32;1.60;;;;;;;20.62;50.58;100261.25;5074230;28;20493;-62
2021/10/30 03:06:15;;;;;;;2.40;1.30;;;;;;;20.62;50.49;100258.63;5074478;28;20058;-61
2021/10/30 03:08:40;;;;;;;2.75;1.35;;;;;;;20.61;50.61;100267.53;5074837;28;20039;-62
2021/10/30 03:11:05;;;;;;;2.42;1.20;;;;;;;20.59;50.37;100266.88;5073601;28;20032;-62
2021/10/30 03:13:31;;;;;;;3.50;1.57;;;;;;;20.61;50.69;100272.84;5074537;28;20025;-62
2021/10/30 03:15:56;;;;;;;3.17;1.60;;;;;;;20.62;50.41;100261.25;5074506;28;20357;-62
2021/10/30 03:18:22;;;;;;;3.40;1.60;;;;;;;20.60;50.44;100261.41;5073903;28;20491;-62
2021/10/30 03:20:48;;;;;;;2.38;1.25;;;;;;;20.60;50.62;100265.88;5074372;28;20024;-62
2021/10/30 03:23:14;;;;;;;3.42;1.40;;;;;;;20.58;50.66;100263.38;5074175;28;20048;-62
2021/10/30 03:25:39;;;;;;;3.13;1.50;;;;;;;20.56;50.70;100249.47;5073658;28;20478;-62
2021/10/30 03:28:05;;;;;;;2.70;1.30;;;;;;;20.59;50.51;100248.34;5074273;28;20024;-62
2021/10/30 03:30:37;;;;;;;3.22;1.50;;;;;;;20.60;50.61;100231.44;5074478;28;20020;-62
2021/10/30 03:33:02;;;;;;;3.85;1.42;;;;;;;20.60;50.48;100231.44;5073316;28;20495;-62
2021/10/30 03:35:27;;;;;;;2.85;1.30;;;;;;;20.60;50.45;100228.81;5074004;28;20032;-63
2021/10/30 03:37:56;;;;;;;2.50;1.35;;;;;;;20.60;50.23;100223.50;5074373;28;20105;-63
2021/10/30 03:40:21;;;;;;;4.38;1.92;;;;;;;20.60;50.49;100220.84;5073428;28;20043;-62
2021/10/30 03:42:46;;;;;;;3.30;1.55;;;;;;;20.61;50.37;100209.28;5074011;28;20020;-63
2021/10/30 03:45:16;;;;;;;3.00;1.53;;;;;;;20.59;50.63;100209.44;5074040;28;20107;-62
2021/10/30 03:47:42;;;;;;;3.67;1.60;;;;;;;20.59;50.48;100205.97;5073321;28;20274;-63
2021/10/30 03:50:07;;;;;;;2.47;1.40;;;;;;;20.59;50.42;100205.97;5072692;28;20029;-63
2021/10/30 03:52:33;;;;;;;3.33;1.50;;;;;;;20.60;50.38;100199.69;5073676;28;20403;-63
2021/10/30 03:55:01;;;;;;;3.65;1.40;;;;;;;20.60;50.40;100195.25;5072581;28;20067;-62
2021/10/30 03:57:26;;;;;;;3.65;1.60;;;;;;;20.58;50.46;100194.53;5073861;28;20086;-62
2021/10/30 03:59:52;;;;;;;3.08;1.52;;;;;;;20.58;50.29;100199.00;5073138;28;20028;-62
2021/10/30 04:02:18;;;;;;;2.75;1.38;;;;;;;20.58;50.55;100196.38;5073612;28;20103;-62
2021/10/30 04:04:44;;;;;;;2.58;1.30;;;;;;;20.56;50.29;100204.47;5073830;28;20451;-61
2021/10/30 04:07:15;;;;;;;2.72;1.40;;;;;;;20.56;50.68;100206.28;5072695;28;20063;-62
2021/10/30 04:09:40;;;;;;;3.17;1.50;;;;;;;20.55;50.50;100212.56;5073074;28;20517;-61
2021/10/30 04:12:06;;;;;;;3.10;1.43;;;;;;;20.56;50.50;100198.34;5073518;28;20032;-62
2021/10/30 04:14:31;;;;;;;2.80;1.55;;;;;;;20.56;50.51;100196.53;5072647;28;20706;-63
2021/10/30 04:16:56;;;;;;;2.78;1.40;;;;;;;20.56;50.47;100198.34;5072931;28;20021;-61
2021/10/30 04:19:22;;;;;;;3.08;1.50;;;;;;;20.55;50.68;100201.97;5073438;28;20570;-62
2021/10/30 04:21:47;;;;;;;3.28;1.70;;;;;;;20.54;50.36;100202.97;5072471;28;20119;-61
2021/10/30 04:24:15;;;;;;;2.78;1.50;;;;;;;20.53;50.46;100210.06;5072875;28;20062;-63
2021/10/30 04:26:40;;;;;;;3.25;1.40;;;;;;;20.52;50.40;100197.00;5073450;28;20108;-62
2021/10/30 04:29:06;;;;;;;3.38;1.45;;;;;;;20.53;50.49;100217.19;5072167;28;20486;-62
2021/10/30 04:31:33;;;;;;;3.67;1.50;;;;;;;20.53;50.55;100210.06;5073257;28;20025;-63
2021/10/30 04:34:01;;;;;;;3.28;1.50;;;;;;;20.54;50.45;100210.91;5072810;28;20032;-61
2021/10/30 04:36:29;;;;;;;3.05;1.50;;;;;;;20.53;50.41;100206.59;5072106;28;20021;-62
2021/10/30 04:38:56;;;;;;;2.60;1.40;;;;;;;20.51;50.50;100196.16;5072830;28;20049;-63
2021/10/30 04:41:24;;;;;;;3.25;1.40;;;;;;;20.50;50.42;100197.13;5073209;28;20017;-62
2021/10/30 04:43:50;;;;;;;2.92;1.45;;;;;;;20.50;50.52;100194.50;5072182;28;20028;-62
2021/10/30 04:46:18;;;;;;;3.03;1.50;;;;;;;20.48;50.63;100189.34;5072689;28;20032;-62
2021/10/30 04:48:44;;;;;;;3.03;1.42;;;;;;;20.48;50.56;100180.59;5073134;28;20025;-65
2021/10/30 04:51:10;;;;;;;3.65;1.67;;;;;;;20.46;50.65;100178.09;5071638;28;20360;-62
2021/10/30 04:53:41;;;;;;;3.08;1.52;;;;;;;20.47;50.57;100176.28;5072780;28;20089;-63
2021/10/30 04:56:09;;;;;;;3.38;1.80;;;;;;;20.48;50.83;100164.72;5071818;28;20029;-61
2021/10/30 04:58:35;;;;;;;3.65;2.00;;;;;;;20.49;50.64;100171.69;5073060;28;20032;-62
2021/10/30 05:01:01;;;;;;;3.28;1.52;;;;;;;20.47;50.42;100163.91;5072514;28;20021;-62
2021/10/30 05:03:29;;;;;;;3.15;1.58;;;;;;;20.47;50.37;100158.59;5071974;28;20040;-62
2021/10/30 05:05:55;;;;;;;4.32;1.55;;;;;;;20.49;50.71;100155.81;5072734;28;20120;-61
2021/10/30 05:08:23;;;;;;;2.50;1.30;;;;;;;20.51;50.33;100160.94;5072543;28;20059;-61
2021/10/30 05:10:48;;;;;;;3.08;1.70;;;;;;;20.50;50.42;100151.31;5071812;28;20544;-62
2021/10/30 05:13:13;;;;;;;5.40;1.70;;;;;;;20.48;50.53;100143.53;5072501;28;20052;-62
2021/10/30 05:15:38;;;;;;;2.80;1.67;;;;;;;20.48;50.35;100147.00;5072815;28;20732;-62
2021/10/30 05:18:04;;;;;;;3.40;1.60;;;;;;;20.47;50.38;100150.66;5070923;28;20051;-62
2021/10/30 05:20:29;;;;;;;2.67;1.50;;;;;;;20.45;50.48;100131.44;5072521;28;20318;-62
2021/10/30 05:22:55;;;;;;;2.83;1.50;;;;;;;20.45;50.41;100138.56;5072424;28;20040;-62
2021/10/30 05:25:22;;;;;;;3.60;1.60;;;;;;;20.45;50.47;100128.78;5071490;28;20024;-61
2021/10/30 05:27:47;;;;;;;3.25;1.40;;;;;;;20.52;50.43;100118.44;5072381;28;20472;-61
2021/10/30 05:30:12;;;;;;;2.97;1.42;;;;;;;20.61;50.40;100106.88;5071921;28;20019;-61
2021/10/30 05:32:37;;;;;;;2.73;1.27;;;;;;;20.70;50.29;100113.06;5071488;28;20040;-62
2021/10/30 05:35:03;;;;;;;2.95;1.33;;;;;;;20.76;50.09;100101.84;5071970;28;20280;-61
2021/10/30 05:37:29;;;;;;;3.10;1.50;;;;;;;20.83;49.96;100102.03;5072226;28;20043;-61
2021/10/30 05:39:54;;;;;;;2.47;1.30;;;;;;;20.88;49.84;100104.19;5071577;28;20020;-61
2021/10/30 05:42:20;;;;;;;2.45;1.20;;;;;;;20.92;49.62;100093.13;5071865;28;20491;-64
2021/10/30 05:44:46;;;;;;;2.85;1.30;;;;;;;20.99;49.69;100101.25;5072032;28;20056;-63
2021/10/30 05:47:12;;;;;;;3.13;1.33;;;;;;;21.04;49.53;100092.81;5071439;28;20048;-63
2021/10/30 05:49:39;;;;;;;3.10;1.40;;;;;;;21.06;49.43;100094.34;5072033;28;20032;-63
2021/10/30 05:52:07;;;;;;;3.05;1.45;;;;;;;21.07;49.22;100087.22;5071481;28;20074;-64
2021/10/30 05:54:32;;;;;;;4.40;1.80;;;;;;;21.10;49.38;100098.31;5071489;28;20033;-65
2021/10/30 05:56:59;;;;;;;3.28;1.48;;;;;;;21.11;49.27;100099.97;5071651;28;20107;-64
2021/10/30 05:59:25;;;;;;;4.63;1.50;;;;;;;21.15;49.28;100095.16;5071251;28;20028;-63
2021/10/30 06:01:50;;;;;;;4.93;1.73;;;;;;;21.18;49.42;100092.19;5071922;28;20070;-62
2021/10/30 06:04:15;;;;;;;4.03;1.50;;;;;;;21.20;49.17;100104.31;5071560;28;20047;-64
2021/10/30 06:06:44;;;;;;;2.93;1.23;;;;;;;21.22;49.03;100101.50;5071227;28;20060;-63
2021/10/30 06:09:10;;;;;;;3.53;1.30;;;;;;;21.24;49.20;100102.16;5071831;28;20293;-64
2021/10/30 06:11:35;;;;;;;3.15;1.40;;;;;;;21.26;48.98;100101.97;5071935;28;20376;-63
2021/10/30 06:14:02;;;;;;;3.38;1.40;;;;;;;21.27;49.10;100095.66;5074137;28;20031;-64
2021/10/30 06:16:27;;;;;;;2.40;1.27;;;;;;;21.29;48.92;100099.00;5075645;28;20082;-63
2021/10/30 06:18:55;;;;;;;3.00;1.30;;;;;;;21.33;48.92;100103.81;5075737;28;20450;-62
2021/10/30 06:21:21;;;;;;;3.50;1.30;;;;;;;21.34;48.69;100108.09;5075008;28;20372;-63
2021/10/30 06:23:48;;;;;;;2.53;1.30;;;;;;;21.35;48.79;100101.00;5075590;28;20100;-63
2021/10/30 06:26:15;;;;;;;2.85;1.40;;;;;;;21.34;48.93;100100.16;5075099;28;20292;-63
2021/10/30 06:28:40;;;;;;;2.70;1.08;;;;;;;21.33;49.06;100095.88;5074729;28;20143;-62
2021/10/30 06:31:08;;;;;;;3.00;1.30;;;;;;;21.33;48.92;100100.31;5075160;28;20106;-63
2021/10/30 06:33:34;;;;;;;3.42;1.75;;;;;;;21.32;49.03;100091.56;5075410;28;20468;-63
2021/10/30 06:35:59;;;;;;;2.55;1.48;;;;;;;21.32;49.18;100080.94;5074558;28;20025;-64
2021/10/30 06:38:24;;;;;;;2.97;1.20;;;;;;;21.34;48.95;100086.91;5075598;28;20028;-63
2021/10/30 06:40:50;;;;;;;2.90;1.30;;;;;;;21.37;48.80;100091.88;5075254;28;20748;-63
2021/10/30 06:43:15;;;;;;;3.15;1.55;;;;;;;21.41;48.82;100086.25;5074553;28;20041;-63
2021/10/30 06:45:40;;;;;;;3.50;1.30;;;;;;;21.43;48.79;100087.75;5075172;28;20036;-63
2021/10/30 06:48:12;;;;;;;3.03;1.20;;;;;;;21.43;48.75;100076.31;5075193;28;20104;-64
2021/10/30 06:50:37;;;;;;;3.17;1.50;;;;;;;21.39;48.79;100073.16;5074732;28;20490;-64
2021/10/30 06:53:02;;;;;;;3.20;1.50;;;;;;;21.37;48.51;100075.97;5074325;28;20055;-65
2021/10/30 06:55:28;;;;;;;3.20;1.27;;;;;;;21.38;48.92;100074.19;5075165;28;20432;-64
2021/10/30 06:57:55;;;;;;;3.90;1.48;;;;;;;21.37;49.00;100069.84;5074463;28;20098;-65
2021/10/30 07:00:21;;;;;;;4.28;1.40;;;;;;;21.40;49.16;100074.84;5074526;28;20415;-63
2021/10/30 07:02:47;;;;;;;3.53;1.45;;;;;;;21.40;49.06;100071.38;5074392;28;20032;-60
2021/10/30 07:05:12;;;;;;;4.47;1.52;;;;;;;21.38;49.39;100060.94;5075072;28;20032;-66
2021/10/30 07:07:38;;;;;;;4.30;1.55;;;;;;;21.41;49.23;100054.44;5074879;28;20376;-64
2021/10/30 07:10:05;;;;;;;2.92;1.40;;;;;;;21.44;49.15;100056.78;5073776;28;20020;-62
2021/10/30 07:12:33;;;;;;;3.45;1.20;;;;;;;21.48;49.07;100055.47;5074711;28;20189;-63
2021/10/30 07:15:01;;;;;;;3.67;1.30;;;;;;;21.45;49.25;100050.50;5074155;28;20452;-64
2021/10/30 07:17:36;;;;;;;3.35;1.40;;;;;;;21.48;49.33;100053.66;5073728;28;20378;-64
2021/10/30 07:20:06;;;;;;;2.40;1.20;;;;;;;21.52;49.18;100052.34;5074309;28;20130;-67
2021/10/30 07:22:38;;;;;;;3.53;1.45;;;;;;;21.56;49.08;100050.19;5074575;28;20016;-63
2021/10/30 07:25:04;;;;;;;3.75;1.38;;;;;;;21.59;49.05;100060.47;5073262;28;20113;-63
2021/10/30 07:27:32;;;;;;;4.15;1.40;;;;;;;21.62;48.96;100057.47;5074263;28;20135;-62
2021/10/30 07:29:57;;;;;;;3.72;1.40;;;;;;;21.65;49.01;100040.38;5073957;28;20063;-63
2021/10/30 07:32:23;;;;;;;2.92;1.10;;;;;;;21.66;49.27;100050.00;5073285;28;20113;-62
2021/10/30 07:34:54;;;;;;;2.58;1.35;;;;;;;21.64;48.90;100044.88;5074369;28;20086;-64
2021/10/30 07:37:19;;;;;;;2.83;1.30;;;;;;;21.63;49.01;100048.50;5073675;28;20417;-64
2021/10/30 07:39:45;;;;;;;3.42;1.48;;;;;;;21.61;48.84;100045.19;5073151;28;20036;-63
2021/10/30 07:42:11;;;;;;;3.20;1.33;;;;;;;21.61;49.17;100050.50;5073663;28;20035;-62
2021/10/30 07:44:40;;;;;;;4.10;1.50;;;;;;;21.61;49.13;100049.69;5074274;28;20127;-62
2021/10/30 07:47:06;;;;;;;4.07;1.30;;;;;;;21.60;49.23;100043.53;5072546;28;20064;-63
2021/10/30 07:49:32;;;;;;;3.13;1.50;;;;;;;21.59;49.26;100041.91;5074021;28;20020;-62
2021/10/30 07:52:01;;;;;;;3.22;1.27;;;;;;;21.61;49.37;100044.38;5072513;28;20036;-64
2021/10/30 07:54:26;;;;;;;2.88;1.20;;;;;;;21.60;49.29;100043.53;5073595;28;20067;-63
2021/10/30 07:56:51;;;;;;;3.27;1.40;;;;;;;21.61;49.45;100041.72;5073941;28;20511;-61
2021/10/30 07:59:16;;;;;;;3.08;1.50;;;;;;;21.60;49.20;100048.84;5072515;28;20709;-65
2021/10/30 08:01:42;;;;;;;3.88;1.48;;;;;;;21.59;49.50;100030.44;5073752;28;20107;-64
2021/10/30 08:04:10;;;;;;;3.37;1.40;;;;;;;21.56;49.61;100028.97;5073335;28;20025;-62
2021/10/30 08:06:38;;;;;;;2.90;1.30;;;;;;;21.54;49.69;100039.75;5072740;28;20296;-60
2021/10/30 08:09:09;;;;;;;3.33;1.38;;;;;;;21.52;49.91;100036.44;5073043;28;20078;-60
2021/10/30 08:11:34;;;;;;;3.00;1.40;;;;;;;21.52;49.81;100027.63;5073825;28;20070;-63
2021/10/30 08:13:59;;;;;;;3.40;1.40;;;;;;;21.51;49.77;100033.94;5072515;28;20400;-62
2021/10/30 08:16:25;;;;;;;3.00;1.38;;;;;;;21.52;49.81;100023.19;5073342;28;20289;-62
2021/10/30 08:18:50;;;;;;;2.72;1.27;;;;;;;21.54;49.95;100020.38;5073453;28;20021;-61
2021/10/30 08:21:15;;;;;;;3.83;1.70;;;;;;;21.56;49.73;100029.78;5072156;28;20029;-64
2021/10/30 08:23:43;;;;;;;3.15;1.35;;;;;;;21.59;49.70;100022.50;5073311;28;20311;-62
2021/10/30 08:26:08;;;;;;;4.53;1.40;;;;;;;21.54;49.56;100021.19;5073034;28;20036;-60
2021/10/30 08:28:34;;;;;;;2.50;1.23;;;;;;;21.55;49.83;100019.34;5072546;28;20024;-60
2021/10/30 08:30:59;;;;;;;4.03;1.25;;;;;;;21.54;50.00;100015.06;5074454;28;20020;-61
2021/10/30 08:33:25;;;;;;;3.13;1.50;;;;;;;21.49;50.06;100014.72;5074400;28;20024;-61
2021/10/30 08:35:50;;;;;;;2.97;1.30;;;;;;;21.52;50.05;100014.38;5072599;28;20048;-62
2021/10/30 08:38:15;;;;;;;3.85;1.58;;;;;;;21.57;49.99;100014.72;5077097;28;20436;-61
2021/10/30 08:40:43;;;;;;;3.87;1.50;;;;;;;21.62;49.74;100009.75;5076201;28;20054;-62
2021/10/30 08:43:16;;;;;;;5.03;1.38;;;;;;;21.68;49.51;100018.84;5074092;28;20040;-63
2021/10/30 08:46:07;;;;;;;3.83;1.30;;;;;;;21.71;49.43;100014.06;5073994;28;20074;-66
2021/10/30 08:48:32;;;;;;;3.63;1.35;;;;;;;21.75;49.30;100011.88;5074338;28;20056;-64
2021/10/30 08:51:01;;;;;;;3.10;1.27;;;;;;;21.76;49.41;100007.41;5071744;28;20063;-61
2021/10/30 08:53:26;;;;;;;4.00;1.40;;;;;;;21.77;49.21;100009.06;5072073;28;20052;-61
2021/10/30 08:55:53;;;;;;;2.92;1.33;;;;;;;21.81;49.24;100013.84;5071940;28;20426;-61
2021/10/30 08:58:20;;;;;;;2.95;1.17;;;;;;;21.82;48.99;100010.19;5071967;28;20024;-61
2021/10/30 09:00:49;;;;;;;3.45;1.40;;;;;;;21.82;48.96;100009.38;5072023;28;20043;-61
2021/10/30 09:03:16;;;;;;;3.97;1.38;;;;;;;21.82;48.90;100007.53;5070783;28;20532;-61
2021/10/30 09:05:45;;;;;;;2.92;1.23;;;;;;;21.82;48.90;99999.59;5071917;28;20040;-61
2021/10/30 09:08:11;;;;;;;3.15;1.10;;;;;;;21.82;48.90;100001.41;5071596;28;20055;-61
2021/10/30 09:10:48;;;;;;;3.15;1.40;;;;;;;21.80;48.98;100011.38;5071151;28;20107;-61
2021/10/30 09:13:18;;;;;;;3.05;1.30;;;;;;;21.78;48.84;100003.59;5071426;28;20021;-60
2021/10/30 09:15:55;;;;;;;3.15;1.75;;;;;;;21.77;48.81;100006.41;5071543;28;20103;-60
2021/10/30 09:18:33;;;;;;;3.05;1.20;;;;;;;21.77;48.95;100007.22;5070716;28;20320;-61
2021/10/30 09:21:04;;;;;;;3.22;1.42;;;;;;;21.73;48.85;100001.44;5071197;28;20483;-60
2021/10/30 09:23:41;;;;;;;4.90;1.50;;;;;;;21.71;49.23;100002.59;5070710;28;20486;-61
2021/10/30 09:26:30;;;;;;;4.25;1.50;;;;;;;21.69;49.08;100001.94;5071594;28;20544;-61
2021/10/30 09:29:09;;;;;;;4.18;1.30;;;;;;;21.68;49.06;100005.56;5071584;28;20033;-60
2021/10/30 09:31:35;;;;;;;3.40;1.17;;;;;;;21.69;49.13;100000.09;5070863;28;20387;-60
2021/10/30 09:34:06;;;;;;;3.13;1.30;;;;;;;21.68;49.08;100001.13;5071440;28;20025;-60
2021/10/30 09:36:38;;;;;;;2.40;1.17;;;;;;;21.67;49.00;99999.47;5071357;28;20063;-61
2021/10/30 09:39:09;;;;;;;3.85;1.33;;;;;;;21.69;48.92;100000.09;5070587;28;20024;-61
2021/10/30 09:41:37;;;;;;;3.17;1.25;;;;;;;21.70;48.85;100000.97;5071814;28;20085;-61
2021/10/30 09:44:09;;;;;;;4.50;1.35;;;;;;;21.69;48.99;99997.47;5071088;28;20031;-61
2021/10/30 09:46:43;;;;;;;2.80;1.20;;;;;;;21.69;49.07;99994.00;5070674;28;20048;-61
2021/10/30 09:49:16;;;;;;;3.35;1.08;;;;;;;21.69;48.99;99994.00;5074456;28;20111;-61
2021/10/30 09:51:43;;;;;;;2.50;1.17;;;;;;;21.67;49.18;99993.34;5074878;28;20554;-61
2021/10/30 09:54:08;;;;;;;2.55;1.10;;;;;;;21.66;49.01;99996.97;5075203;28;20056;-59
2021/10/30 09:56:43;;;;;;;2.85;1.13;;;;;;;21.67;48.88;99993.34;5075330;28;20040;-60
2021/10/30 09:59:15;;;;;;;2.85;1.17;;;;;;;21.68;49.00;99985.22;5074643;28;20020;-61
2021/10/30 10:01:43;;;;;;;2.67;1.40;;;;;;;21.67;48.80;99994.16;5075512;28;20072;-61
2021/10/30 10:04:11;;;;;;;3.63;1.20;;;;;;;21.66;48.96;99987.19;5075103;28;20016;-60
2021/10/30 10:06:39;;;;;;;3.97;1.17;;;;;;;21.65;49.07;99988.19;5074822;28;20027;-60
2021/10/30 10:09:05;;;;;;;3.15;1.38;;;;;;;21.62;48.82;99982.38;5075195;28;20387;-60
2021/10/30 10:11:38;;;;;;;2.22;1.10;;;;;;;21.62;48.95;99990.34;5075701;28;20021;-60
2021/10/30 10:14:04;;;;;;;3.55;1.17;;;;;;;21.62;48.90;99980.59;5074234;28;20117;-60
2021/10/30 10:16:29;;;;;;;4.03;1.30;;;;;;;21.61;48.93;99978.91;5075482;28;20079;-61
2021/10/30 10:18:56;;;;;;;2.50;1.10;;;;;;;21.59;49.07;99986.22;5075323;28;20036;-61
2021/10/30 10:21:36;;;;;;;3.28;1.27;;;;;;;21.60;49.12;99984.38;5074353;28;20036;-61
2021/10/30 10:24:03;;;;;;;2.03;1.10;;;;;;;21.58;48.97;99976.59;5075204;28;20033;-61
2021/10/30 10:26:44;;;;;;;3.10;1.35;;;;;;;21.60;48.79;99971.13;5075145;28;20040;-61
2021/10/30 10:29:09;;;;;;;3.00;1.30;;;;;;;21.62;49.31;99975.28;5075083;28;20032;-61
2021/10/30 10:31:47;;;;;;;2.73;1.30;;;;;;;21.61;49.06;99973.63;5075069;28;20396;-61
2021/10/30 10:34:15;;;;;;;3.42;1.17;;;;;;;21.62;49.13;99963.81;5074132;28;20040;-61
2021/10/30 10:36:42;;;;;;;2.60;1.10;;;;;;;21.61;49.11;99960.34;5074756;28;20438;-61
2021/10/30 10:39:11;;;;;;;2.72;1.17;;;;;;;21.60;49.07;99961.34;5074392;28;20074;-61
2021/10/30 10:41:43;;;;;;;2.55;1.20;;;;;;;21.63;49.11;99957.53;5074197;28;20514;-61
2021/10/30 10:44:11;;;;;;;3.00;1.25;;;;;;;21.63;48.98;99961.00;5074554;28;20130;-61
2021/10/30 10:46:53;;;;;;;2.70;1.17;;;;;;;21.65;48.90;99960.84;5075016;28;20024;-61
2021/10/30 10:52:16;;;;;;;3.65;1.40;;;;;;;21.61;48.96;99959.53;5074997;28;20036;-61
2021/10/30 10:54:56;;;;;;;2.70;1.00;;;;;;;21.62;48.97;99951.41;5074625;28;20060;-61
2021/10/30 10:57:43;;;;;;;3.67;1.20;;;;;;;21.61;48.98;99939.16;5074286;28;20039;-61
2021/10/30 11:00:12;;;;;;;2.75;1.10;;;;;;;21.62;48.83;99930.22;5074160;28;20037;-61
2021/10/30 11:02:49;;;;;;;3.00;1.20;;;;;;;21.67;48.98;99927.03;5073732;28;20040;-61
2021/10/30 11:05:23;;;;;;;2.40;1.20;;;;;;;21.67;48.86;99927.03;5074333;28;20031;-59
2021/10/30 11:07:48;;;;;;;;;;;;;;;21.67;48.83;99925.22;5074977;28;20033;-64
2021/10/30 11:10:14;;;;;;;3.03;1.33;;;;;;;21.67;48.88;99919.91;5073010;28;19939;-66
2021/10/30 11:13:10;;;;;;;2.60;1.00;;;;;;;21.67;48.92;99924.41;5074006;28;20456;-62
2021/10/30 11:15:48;;;;;;;3.67;1.00;;;;;;;21.68;48.94;99926.03;5074327;28;20044;-61
2021/10/30 11:18:22;;;;;;;3.70;1.52;;;;;;;21.62;49.06;99921.41;5073409;28;20024;-59
2021/10/30 11:21:14;;;;;;;2.95;1.20;;;;;;;21.65;49.10;99916.59;5074260;28;20104;-61
2021/10/30 11:23:48;;;;;;;2.70;0.93;;;;;;;21.62;49.37;99918.75;5075444;28;20112;-63
2021/10/30 11:26:27;;;;;;;3.03;1.25;;;;;;;21.60;49.45;99913.63;5078286;28;20167;-63
2021/10/30 11:29:17;;;;;;;2.65;1.30;;;;;;;21.64;49.34;99914.13;5077915;28;20024;-62
2021/10/30 11:31:42;;;;;;;3.40;1.10;;;;;;;21.70;49.31;99914.28;5077272;28;20033;-63